sensor_id;sensor_type;location;lat;lon;timestamp;pressure;altitude;pressure_sealevel;temperature;humidity
72116;BME280;59991;52.140;5.428;2023-05-02T00:00:00;102029.97;;;11.05;87.08
72116;BME280;59991;52.140;5.428;2023-05-02T00:00:32;102036.22;;;11.06;86.88
72116;BME280;59991;52.140;5.428;2023-05-02T00:01:04;102034.63;;;11.05;86.92
72116;BME280;59991;52.140;5.428;2023-05-02T00:01:36;102026.44;;;11.05;87.23
72116;BME280;59991;52.140;5.428;2023-05-02T00:02:08;102021.78;;;11.05;87.49
72116;BME280;59991;52.140;5.428;2023-05-02T00:02:39;102024.06;;;11.03;87.75
72116;BME280;59991;52.140;5.428;2023-05-02T00:03:12;102027.94;;;11.02;87.51
72116;BME280;59991;52.140;5.428;2023-05-02T00:03:43;102032.25;;;11.03;87.38
72116;BME280;59991;52.140;5.428;2023-05-02T00:04:15;102024.75;;;11.00;87.77
72116;BME280;59991;52.140;5.428;2023-05-02T00:04:47;102029.06;;;11.01;87.78
72116;BME280;59991;52.140;5.428;2023-05-02T00:05:19;102029.06;;;11.01;87.74
72116;BME280;59991;52.140;5.428;2023-05-02T00:05:50;102028.63;;;10.99;87.84
72116;BME280;59991;52.140;5.428;2023-05-02T00:06:22;102031.34;;;10.99;87.90
72116;BME280;59991;52.140;5.428;2023-05-02T00:06:53;102021.56;;;10.98;88.20
72116;BME280;59991;52.140;5.428;2023-05-02T00:07:25;102027.03;;;10.98;87.79
72116;BME280;59991;52.140;5.428;2023-05-02T00:07:57;102021.56;;;10.98;87.91
72116;BME280;59991;52.140;5.428;2023-05-02T00:08:28;102027.03;;;10.98;87.82
72116;BME280;59991;52.140;5.428;2023-05-02T00:08:59;102032.50;;;10.98;87.76
72116;BME280;59991;52.140;5.428;2023-05-02T00:09:31;102034.09;;;10.99;87.68
72116;BME280;59991;52.140;5.428;2023-05-02T00:10:03;102023.97;;;11.00;87.63
72116;BME280;59991;52.140;5.428;2023-05-02T00:10:36;102029.41;;;11.00;87.95
72116;BME280;59991;52.140;5.428;2023-05-02T00:11:07;102032.16;;;11.00;87.92
72116;BME280;59991;52.140;5.428;2023-05-02T00:11:39;102025.44;;;10.97;87.88
72116;BME280;59991;52.140;5.428;2023-05-02T00:12:10;102028.19;;;10.97;87.94
72116;BME280;59991;52.140;5.428;2023-05-02T00:12:42;102031.69;;;10.98;87.75
72116;BME280;59991;52.140;5.428;2023-05-02T00:13:13;102030.91;;;10.97;87.69
72116;BME280;59991;52.140;5.428;2023-05-02T00:13:44;102030.91;;;10.97;87.89
72116;BME280;59991;52.140;5.428;2023-05-02T00:14:16;102026.63;;;10.96;87.94
72116;BME280;59991;52.140;5.428;2023-05-02T00:14:47;102034.81;;;10.96;88.31
72116;BME280;59991;52.140;5.428;2023-05-02T00:15:19;102028.56;;;10.96;88.29
72116;BME280;59991;52.140;5.428;2023-05-02T00:15:50;102028.56;;;10.96;88.14
72116;BME280;59991;52.140;5.428;2023-05-02T00:16:22;102032.06;;;10.96;88.09
72116;BME280;59991;52.140;5.428;2023-05-02T00:16:53;102032.06;;;10.96;88.08
72116;BME280;59991;52.140;5.428;2023-05-02T00:17:25;102034.00;;;10.96;88.14
72116;BME280;59991;52.140;5.428;2023-05-02T00:17:56;102029.34;;;10.96;88.27
72116;BME280;59991;52.140;5.428;2023-05-02T00:18:28;102023.88;;;10.96;88.01
72116;BME280;59991;52.140;5.428;2023-05-02T00:18:59;102026.63;;;10.96;87.61
72116;BME280;59991;52.140;5.428;2023-05-02T00:19:31;102030.13;;;10.97;87.73
72116;BME280;59991;52.140;5.428;2023-05-02T00:20:03;102028.97;;;10.98;87.81
72116;BME280;59991;52.140;5.428;2023-05-02T00:20:35;102028.19;;;10.97;88.29
72116;BME280;59991;52.140;5.428;2023-05-02T00:21:06;102027.03;;;10.98;88.07
72116;BME280;59991;52.140;5.428;2023-05-02T00:21:39;102028.63;;;10.99;88.14
72116;BME280;59991;52.140;5.428;2023-05-02T00:22:10;102021.22;;;11.00;87.83
72116;BME280;59991;52.140;5.428;2023-05-02T00:22:42;102031.34;;;10.99;88.12
72116;BME280;59991;52.140;5.428;2023-05-02T00:23:13;102030.22;;;11.00;88.05
72116;BME280;59991;52.140;5.428;2023-05-02T00:23:44;102028.63;;;10.99;88.22
72116;BME280;59991;52.140;5.428;2023-05-02T00:24:16;102026.25;;;10.98;87.91
72116;BME280;59991;52.140;5.428;2023-05-02T00:24:48;102030.13;;;10.97;87.96
72116;BME280;59991;52.140;5.428;2023-05-02T00:25:20;102028.56;;;10.96;88.13
72116;BME280;59991;52.140;5.428;2023-05-02T00:25:51;102032.84;;;10.97;87.83
72116;BME280;59991;52.140;5.428;2023-05-02T00:26:23;102036.38;;;10.97;88.23
72116;BME280;59991;52.140;5.428;2023-05-02T00:26:54;102031.69;;;10.98;87.79
72116;BME280;59991;52.140;5.428;2023-05-02T00:27:26;102028.19;;;10.97;87.50
72116;BME280;59991;52.140;5.428;2023-05-02T00:27:57;102026.63;;;10.96;87.98
72116;BME280;59991;52.140;5.428;2023-05-02T00:28:29;102030.13;;;10.97;88.04
72116;BME280;59991;52.140;5.428;2023-05-02T00:29:01;102033.63;;;10.97;87.94
72116;BME280;59991;52.140;5.428;2023-05-02T00:29:32;102040.25;;;10.96;87.85
72116;BME280;59991;52.140;5.428;2023-05-02T00:30:04;102041.03;;;10.97;87.61
72116;BME280;59991;52.140;5.428;2023-05-02T00:30:36;102032.84;;;10.97;87.85
72116;BME280;59991;52.140;5.428;2023-05-02T00:31:12;102043.00;;;10.96;87.85
72116;BME280;59991;52.140;5.428;2023-05-02T00:31:43;102045.34;;;10.98;87.62
72116;BME280;59991;52.140;5.428;2023-05-02T00:32:14;102037.94;;;10.98;87.51
72116;BME280;59991;52.140;5.428;2023-05-02T00:32:46;102033.28;;;10.99;87.25
72116;BME280;59991;52.140;5.428;2023-05-02T00:33:17;102035.22;;;10.98;87.43
72116;BME280;59991;52.140;5.428;2023-05-02T00:33:49;102035.22;;;10.98;87.70
72116;BME280;59991;52.140;5.428;2023-05-02T00:34:20;102036.38;;;10.97;87.87
72116;BME280;59991;52.140;5.428;2023-05-02T00:34:52;102035.94;;;10.95;87.74
72116;BME280;59991;52.140;5.428;2023-05-02T00:35:24;102038.69;;;10.95;88.05
72116;BME280;59991;52.140;5.428;2023-05-02T00:35:55;102036.31;;;10.94;88.26
72116;BME280;59991;52.140;5.428;2023-05-02T00:36:27;102039.03;;;10.94;87.86
72116;BME280;59991;52.140;5.428;2023-05-02T00:36:58;102030.84;;;10.94;88.20
72116;BME280;59991;52.140;5.428;2023-05-02T00:37:30;102040.97;;;10.93;87.83
72116;BME280;59991;52.140;5.428;2023-05-02T00:38:01;102033.13;;;10.92;88.25
72116;BME280;59991;52.140;5.428;2023-05-02T00:38:32;102037.78;;;10.91;88.39
72116;BME280;59991;52.140;5.428;2023-05-02T00:39:04;102046.31;;;10.90;88.36
72116;BME280;59991;52.140;5.428;2023-05-02T00:39:36;102046.31;;;10.90;88.58
72116;BME280;59991;52.140;5.428;2023-05-02T00:40:07;102040.06;;;10.89;88.54
72116;BME280;59991;52.140;5.428;2023-05-02T00:40:43;102038.47;;;10.88;88.53
72116;BME280;59991;52.140;5.428;2023-05-02T00:41:16;102043.94;;;10.88;88.85
72116;BME280;59991;52.140;5.428;2023-05-02T00:41:48;102041.22;;;10.88;88.92
72116;BME280;59991;52.140;5.428;2023-05-02T00:42:19;102046.66;;;10.88;88.86
72116;BME280;59991;52.140;5.428;2023-05-02T00:42:51;102035.75;;;10.88;89.46
72116;BME280;59991;52.140;5.428;2023-05-02T00:43:22;102034.16;;;10.87;89.62
72116;BME280;59991;52.140;5.428;2023-05-02T00:43:54;102038.47;;;10.88;89.54
72116;BME280;59991;52.140;5.428;2023-05-02T00:44:26;102030.66;;;10.87;89.63
72116;BME280;59991;52.140;5.428;2023-05-02T00:44:58;102045.88;;;10.88;89.75
72116;BME280;59991;52.140;5.428;2023-05-02T00:45:29;102033.03;;;10.88;89.05
72116;BME280;59991;52.140;5.428;2023-05-02T00:46:01;102037.69;;;10.88;89.41
72116;BME280;59991;52.140;5.428;2023-05-02T00:46:33;102037.69;;;10.88;89.65
72116;BME280;59991;52.140;5.428;2023-05-02T00:47:04;102041.56;;;10.87;89.90
72116;BME280;59991;52.140;5.428;2023-05-02T00:47:36;102043.50;;;10.86;89.63
72116;BME280;59991;52.140;5.428;2023-05-02T00:48:09;102042.69;;;10.86;89.90
72116;BME280;59991;52.140;5.428;2023-05-02T00:48:40;102045.44;;;10.86;89.89
72116;BME280;59991;52.140;5.428;2023-05-02T00:49:12;102051.69;;;10.86;89.93
72116;BME280;59991;52.140;5.428;2023-05-02T00:49:43;102047.38;;;10.85;90.01
72116;BME280;59991;52.140;5.428;2023-05-02T00:50:16;102041.91;;;10.85;90.37
72116;BME280;59991;52.140;5.428;2023-05-02T00:50:48;102044.63;;;10.85;90.15
72116;BME280;59991;52.140;5.428;2023-05-02T00:51:19;102046.91;;;10.83;90.53
72116;BME280;59991;52.140;5.428;2023-05-02T00:51:52;102046.91;;;10.83;90.25
72116;BME280;59991;52.140;5.428;2023-05-02T00:52:24;102048.50;;;10.84;90.47
72116;BME280;59991;52.140;5.428;2023-05-02T00:52:56;102050.44;;;10.84;90.46
72116;BME280;59991;52.140;5.428;2023-05-02T00:53:27;102053.16;;;10.84;90.44
72116;BME280;59991;52.140;5.428;2023-05-02T00:54:00;102051.22;;;10.84;90.40
72116;BME280;59991;52.140;5.428;2023-05-02T00:54:31;102055.56;;;10.85;90.43
72116;BME280;59991;52.140;5.428;2023-05-02T00:55:03;102048.16;;;10.86;90.67
72116;BME280;59991;52.140;5.428;2023-05-02T00:55:36;102056.34;;;10.86;90.54
72116;BME280;59991;52.140;5.428;2023-05-02T00:56:07;102053.63;;;10.86;90.29
72116;BME280;59991;52.140;5.428;2023-05-02T00:56:40;102058.72;;;10.87;90.87
72116;BME280;59991;52.140;5.428;2023-05-02T00:57:11;102056.00;;;10.87;90.37
72116;BME280;59991;52.140;5.428;2023-05-02T00:57:43;102051.69;;;10.86;90.55
72116;BME280;59991;52.140;5.428;2023-05-02T00:58:15;102055.19;;;10.87;90.34
72116;BME280;59991;52.140;5.428;2023-05-02T00:58:47;102057.94;;;10.87;90.75
72116;BME280;59991;52.140;5.428;2023-05-02T00:59:19;102047.81;;;10.87;91.20
72116;BME280;59991;52.140;5.428;2023-05-02T00:59:51;102061.00;;;10.85;90.91
72116;BME280;59991;52.140;5.428;2023-05-02T01:00:35;102056.34;;;10.86;91.20
72116;BME280;59991;52.140;5.428;2023-05-02T01:02:52;102056.59;;;10.81;91.37
72116;BME280;59991;52.140;5.428;2023-05-02T01:03:38;102065.56;;;10.81;91.59
72116;BME280;59991;52.140;5.428;2023-05-02T01:05:20;102069.00;;;10.78;91.66
72116;BME280;59991;52.140;5.428;2023-05-02T01:06:14;102073.66;;;10.78;91.43
72116;BME280;59991;52.140;5.428;2023-05-02T01:07:44;102072.50;;;10.79;91.79
72116;BME280;59991;52.140;5.428;2023-05-02T01:08:32;102069.78;;;10.79;91.83
72116;BME280;59991;52.140;5.428;2023-05-02T01:09:12;102067.84;;;10.79;91.67
72116;BME280;59991;52.140;5.428;2023-05-02T01:10:51;102073.31;;;10.79;91.78
72116;BME280;59991;52.140;5.428;2023-05-02T01:11:38;102075.97;;;10.76;92.02
72116;BME280;59991;52.140;5.428;2023-05-02T01:12:27;102080.63;;;10.75;92.49
72116;BME280;59991;52.140;5.428;2023-05-02T01:13:20;102068.91;;;10.75;91.94
72116;BME280;59991;52.140;5.428;2023-05-02T01:13:54;102072.00;;;10.73;92.06
72116;BME280;59991;52.140;5.428;2023-05-02T01:14:32;102076.31;;;10.74;92.22
72116;BME280;59991;52.140;5.428;2023-05-02T01:15:06;102069.25;;;10.73;92.41
72116;BME280;59991;52.140;5.428;2023-05-02T01:15:41;102069.25;;;10.73;92.17
72116;BME280;59991;52.140;5.428;2023-05-02T01:16:15;102071.53;;;10.71;92.41
72116;BME280;59991;52.140;5.428;2023-05-02T01:16:49;102072.22;;;10.68;92.69
72116;BME280;59991;52.140;5.428;2023-05-02T01:17:25;102064.38;;;10.66;92.74
72116;BME280;59991;52.140;5.428;2023-05-02T01:18:00;102065.09;;;10.63;93.19
72116;BME280;59991;52.140;5.428;2023-05-02T01:18:35;102069.28;;;10.61;93.49
72116;BME280;59991;52.140;5.428;2023-05-02T01:19:13;102068.06;;;10.58;93.45
72116;BME280;59991;52.140;5.428;2023-05-02T01:19:52;102069.56;;;10.56;93.51
72116;BME280;59991;52.140;5.428;2023-05-02T01:20:27;102077.41;;;10.57;93.23
72116;BME280;59991;52.140;5.428;2023-05-02T01:21:02;102074.69;;;10.57;93.53
72116;BME280;59991;52.140;5.428;2023-05-02T01:21:36;102068.44;;;10.57;93.17
72116;BME280;59991;52.140;5.428;2023-05-02T01:22:10;102075.03;;;10.56;93.38
72116;BME280;59991;52.140;5.428;2023-05-02T01:22:42;102080.47;;;10.56;93.19
72116;BME280;59991;52.140;5.428;2023-05-02T01:24:24;102081.97;;;10.53;92.57
72116;BME280;59991;52.140;5.428;2023-05-02T01:25:16;102082.31;;;10.52;93.00
72116;BME280;59991;52.140;5.428;2023-05-02T01:27:51;102082.63;;;10.50;92.14
72116;BME280;59991;52.140;5.428;2023-05-02T01:28:35;102081.41;;;10.48;92.00
72116;BME280;59991;52.140;5.428;2023-05-02T01:29:10;102080.25;;;10.49;91.69
72116;BME280;59991;52.140;5.428;2023-05-02T01:29:46;102084.13;;;10.48;91.77
72116;BME280;59991;52.140;5.428;2023-05-02T01:30:20;102079.81;;;10.47;91.13
72116;BME280;59991;52.140;5.428;2023-05-02T01:30:53;102084.13;;;10.48;91.35
72116;BME280;59991;52.140;5.428;2023-05-02T01:31:38;102080.59;;;10.47;91.16
72116;BME280;59991;52.140;5.428;2023-05-02T01:32:11;102088.00;;;10.47;91.05
72116;BME280;59991;52.140;5.428;2023-05-02T01:32:45;102084.00;;;10.44;90.68
72116;BME280;59991;52.140;5.428;2023-05-02T01:33:17;102082.78;;;10.42;90.37
72116;BME280;59991;52.140;5.428;2023-05-02T01:33:53;102086.28;;;10.42;90.06
72116;BME280;59991;52.140;5.428;2023-05-02T01:34:26;102089.03;;;10.42;90.37
72116;BME280;59991;52.140;5.428;2023-05-02T01:34:59;102085.94;;;10.44;90.10
72116;BME280;59991;52.140;5.428;2023-05-02T01:35:32;102084.34;;;10.43;89.76
72116;BME280;59991;52.140;5.428;2023-05-02T01:36:06;102090.94;;;10.42;90.04
72116;BME280;59991;52.140;5.428;2023-05-02T01:36:43;102085.03;;;10.39;89.77
72116;BME280;59991;52.140;5.428;2023-05-02T01:37:16;102089.38;;;10.41;89.33
72116;BME280;59991;52.140;5.428;2023-05-02T01:37:50;102093.59;;;10.38;89.49
72116;BME280;59991;52.140;5.428;2023-05-02T01:38:23;102095.53;;;10.37;89.48
72116;BME280;59991;52.140;5.428;2023-05-02T01:38:56;102102.56;;;10.38;89.69
72116;BME280;59991;52.140;5.428;2023-05-02T01:39:29;102096.31;;;10.38;89.21
72116;BME280;59991;52.140;5.428;2023-05-02T01:40:02;102098.25;;;10.37;89.65
72116;BME280;59991;52.140;5.428;2023-05-02T01:40:35;102099.84;;;10.38;89.37
72116;BME280;59991;52.140;5.428;2023-05-02T01:41:09;102096.31;;;10.38;89.58
72116;BME280;59991;52.140;5.428;2023-05-02T01:41:43;102100.97;;;10.37;89.06
72116;BME280;59991;52.140;5.428;2023-05-02T01:42:18;102100.97;;;10.37;89.03
72116;BME280;59991;52.140;5.428;2023-05-02T01:42:51;102093.59;;;10.38;89.03
72116;BME280;59991;52.140;5.428;2023-05-02T01:43:24;102100.19;;;10.37;89.34
72116;BME280;59991;52.140;5.428;2023-05-02T01:43:58;102098.25;;;10.37;89.44
72116;BME280;59991;52.140;5.428;2023-05-02T01:44:31;102102.91;;;10.37;89.16
72116;BME280;59991;52.140;5.428;2023-05-02T01:45:05;102101.31;;;10.36;88.95
72116;BME280;59991;52.140;5.428;2023-05-02T01:45:40;102104.41;;;10.34;89.41
72116;BME280;59991;52.140;5.428;2023-05-02T01:46:13;102100.88;;;10.34;89.43
72116;BME280;59991;52.140;5.428;2023-05-02T01:46:46;102098.50;;;10.32;89.35
72116;BME280;59991;52.140;5.428;2023-05-02T01:47:20;102103.94;;;10.32;88.98
72116;BME280;59991;52.140;5.428;2023-05-02T01:47:53;102107.81;;;10.31;89.40
72116;BME280;59991;52.140;5.428;2023-05-02T01:48:26;102104.28;;;10.31;89.51
72116;BME280;59991;52.140;5.428;2023-05-02T01:49:01;102102.34;;;10.31;89.21
72116;BME280;59991;52.140;5.428;2023-05-02T01:49:34;102107.00;;;10.31;89.23
72116;BME280;59991;52.140;5.428;2023-05-02T01:50:10;102108.16;;;10.30;89.29
72116;BME280;59991;52.140;5.428;2023-05-02T01:50:44;102108.94;;;10.30;89.70
72116;BME280;59991;52.140;5.428;2023-05-02T01:51:17;102112.47;;;10.31;89.42
72116;BME280;59991;52.140;5.428;2023-05-02T01:51:50;102113.25;;;10.31;89.60
72116;BME280;59991;52.140;5.428;2023-05-02T01:52:23;102114.84;;;10.32;89.37
72116;BME280;59991;52.140;5.428;2023-05-02T01:52:57;102118.38;;;10.33;89.29
72116;BME280;59991;52.140;5.428;2023-05-02T01:53:32;102109.06;;;10.34;89.50
72116;BME280;59991;52.140;5.428;2023-05-02T01:54:07;102116.88;;;10.35;89.57
72116;BME280;59991;52.140;5.428;2023-05-02T01:54:40;102118.03;;;10.34;89.53
72116;BME280;59991;52.140;5.428;2023-05-02T01:55:14;102114.84;;;10.32;89.40
72116;BME280;59991;52.140;5.428;2023-05-02T01:55:48;102117.47;;;10.29;89.22
72116;BME280;59991;52.140;5.428;2023-05-02T01:56:20;102120.53;;;10.27;89.54
72116;BME280;59991;52.140;5.428;2023-05-02T01:56:51;102130.97;;;10.25;89.11
72116;BME280;59991;52.140;5.428;2023-05-02T01:57:23;102132.13;;;10.24;89.31
72116;BME280;59991;52.140;5.428;2023-05-02T01:57:55;102129.38;;;10.24;89.11
72116;BME280;59991;52.140;5.428;2023-05-02T01:58:29;102131.66;;;10.22;89.06
72116;BME280;59991;52.140;5.428;2023-05-02T01:59:04;102128.03;;;10.18;88.66
72116;BME280;59991;52.140;5.428;2023-05-02T01:59:39;102124.50;;;10.18;88.61
72116;BME280;59991;52.140;5.428;2023-05-02T02:00:12;102129.97;;;10.18;88.53
72116;BME280;59991;52.140;5.428;2023-05-02T02:00:44;102129.16;;;10.17;88.42
72116;BME280;59991;52.140;5.428;2023-05-02T02:01:17;102126.78;;;10.16;88.84
72116;BME280;59991;52.140;5.428;2023-05-02T02:01:50;102129.16;;;10.17;88.58
72116;BME280;59991;52.140;5.428;2023-05-02T02:02:25;102122.91;;;10.17;88.59
72116;BME280;59991;52.140;5.428;2023-05-02T02:02:58;102131.09;;;10.17;88.29
72116;BME280;59991;52.140;5.428;2023-05-02T02:03:30;102129.16;;;10.17;88.68
72116;BME280;59991;52.140;5.428;2023-05-02T02:04:03;102130.28;;;10.16;88.45
72116;BME280;59991;52.140;5.428;2023-05-02T02:04:36;102132.22;;;10.16;88.19
72116;BME280;59991;52.140;5.428;2023-05-02T02:05:11;102124.84;;;10.16;88.60
72116;BME280;59991;52.140;5.428;2023-05-02T02:05:47;102118.25;;;10.17;88.45
72116;BME280;59991;52.140;5.428;2023-05-02T02:06:20;102131.56;;;10.19;88.25
72116;BME280;59991;52.140;5.428;2023-05-02T02:06:59;102128.47;;;10.20;88.07
72116;BME280;59991;52.140;5.428;2023-05-02T02:07:32;102127.34;;;10.21;87.99
72116;BME280;59991;52.140;5.428;2023-05-02T02:08:03;102125.75;;;10.20;87.97
72116;BME280;59991;52.140;5.428;2023-05-02T02:08:35;102128.47;;;10.20;87.93
72116;BME280;59991;52.140;5.428;2023-05-02T02:09:06;102125.00;;;10.20;87.81
72116;BME280;59991;52.140;5.428;2023-05-02T02:09:39;102128.03;;;10.18;87.71
72116;BME280;59991;52.140;5.428;2023-05-02T02:10:11;102125.31;;;10.18;87.71
72116;BME280;59991;52.140;5.428;2023-05-02T02:10:45;102133.81;;;10.17;87.38
72116;BME280;59991;52.140;5.428;2023-05-02T02:11:34;102122.13;;;10.16;87.38
72116;BME280;59991;52.140;5.428;2023-05-02T02:12:44;102126.31;;;10.14;87.17
72116;BME280;59991;52.140;5.428;2023-05-02T02:13:25;102127.13;;;10.14;87.29
72116;BME280;59991;52.140;5.428;2023-05-02T02:14:06;102130.63;;;10.15;87.39
72116;BME280;59991;52.140;5.428;2023-05-02T02:14:47;102127.47;;;10.13;87.52
72116;BME280;59991;52.140;5.428;2023-05-02T02:15:31;102124.38;;;10.14;87.42
72116;BME280;59991;52.140;5.428;2023-05-02T02:16:07;102124.72;;;10.13;87.12
72116;BME280;59991;52.140;5.428;2023-05-02T02:16:42;102119.28;;;10.13;87.12
72116;BME280;59991;52.140;5.428;2023-05-02T02:17:45;102128.94;;;10.10;86.91
72116;BME280;59991;52.140;5.428;2023-05-02T02:18:22;102132.69;;;10.05;86.83
72116;BME280;59991;52.140;5.428;2023-05-02T02:18:57;102129.16;;;10.05;86.98
72116;BME280;59991;52.140;5.428;2023-05-02T02:19:29;102135.75;;;10.04;87.13
72116;BME280;59991;52.140;5.428;2023-05-02T02:20:05;102133.00;;;10.04;87.49
72116;BME280;59991;52.140;5.428;2023-05-02T02:20:42;102131.41;;;10.03;87.59
72116;BME280;59991;52.140;5.428;2023-05-02T02:21:17;102142.78;;;10.05;87.60
72116;BME280;59991;52.140;5.428;2023-05-02T02:21:50;102144.03;;;10.08;87.41
72116;BME280;59991;52.140;5.428;2023-05-02T02:22:22;102140.50;;;10.07;87.34
72116;BME280;59991;52.140;5.428;2023-05-02T02:22:58;102142.91;;;10.09;87.22
72116;BME280;59991;52.140;5.428;2023-05-02T02:23:32;102143.69;;;10.09;86.99
72116;BME280;59991;52.140;5.428;2023-05-02T02:24:05;102145.28;;;10.10;86.63
72116;BME280;59991;52.140;5.428;2023-05-02T02:24:38;102147.22;;;10.10;86.85
72116;BME280;59991;52.140;5.428;2023-05-02T02:25:13;102150.72;;;10.10;87.07
72116;BME280;59991;52.140;5.428;2023-05-02T02:25:45;102146.41;;;10.09;86.77
72116;BME280;59991;52.140;5.428;2023-05-02T02:26:19;102149.94;;;10.10;86.71
72116;BME280;59991;52.140;5.428;2023-05-02T02:26:51;102153.00;;;10.08;86.70
72116;BME280;59991;52.140;5.428;2023-05-02T02:27:23;102155.72;;;10.08;86.92
72116;BME280;59991;52.140;5.428;2023-05-02T02:27:55;102149.81;;;10.06;86.63
72116;BME280;59991;52.140;5.428;2023-05-02T02:28:27;102151.75;;;10.05;86.75
72116;BME280;59991;52.140;5.428;2023-05-02T02:28:59;102162.31;;;10.07;86.47
72116;BME280;59991;52.140;5.428;2023-05-02T02:29:31;102151.41;;;10.07;86.95
72116;BME280;59991;52.140;5.428;2023-05-02T02:30:04;102154.13;;;10.07;86.76
72116;BME280;59991;52.140;5.428;2023-05-02T02:30:36;102154.47;;;10.05;86.43
72116;BME280;59991;52.140;5.428;2023-05-02T02:31:07;102161.53;;;10.07;86.35
72116;BME280;59991;52.140;5.428;2023-05-02T02:31:39;102151.75;;;10.05;86.58
72116;BME280;59991;52.140;5.428;2023-05-02T02:32:10;102165.03;;;10.07;86.54
72116;BME280;59991;52.140;5.428;2023-05-02T02:32:42;102156.41;;;10.05;86.56
72116;BME280;59991;52.140;5.428;2023-05-02T02:33:13;102157.19;;;10.05;86.54
72116;BME280;59991;52.140;5.428;2023-05-02T02:33:45;102159.13;;;10.05;86.38
72116;BME280;59991;52.140;5.428;2023-05-02T02:34:17;102161.41;;;10.03;86.08
72116;BME280;59991;52.140;5.428;2023-05-02T02:34:48;102160.59;;;10.02;85.73
72116;BME280;59991;52.140;5.428;2023-05-02T02:35:20;102167.97;;;10.02;85.88
72116;BME280;59991;52.140;5.428;2023-05-02T02:36:04;102160.94;;;10.01;85.58
72116;BME280;59991;52.140;5.428;2023-05-02T02:36:56;102166.84;;;10.03;85.58
72116;BME280;59991;52.140;5.428;2023-05-02T02:37:40;102166.84;;;10.03;85.89
72116;BME280;59991;52.140;5.428;2023-05-02T02:38:39;102165.72;;;10.04;85.52
72116;BME280;59991;52.140;5.428;2023-05-02T02:40:30;102170.63;;;9.98;84.77
72116;BME280;59991;52.140;5.428;2023-05-02T02:41:15;102167.44;;;9.96;84.28
72116;BME280;59991;52.140;5.428;2023-05-02T02:41:54;102173.56;;;9.93;83.88
72116;BME280;59991;52.140;5.428;2023-05-02T02:42:48;102174.25;;;9.90;83.67
72116;BME280;59991;52.140;5.428;2023-05-02T02:43:33;102170.25;;;9.88;83.96
72116;BME280;59991;52.140;5.428;2023-05-02T02:46:58;102176.38;;;9.85;83.59
72116;BME280;59991;52.140;5.428;2023-05-02T02:48:01;102170.47;;;9.83;83.62
72116;BME280;59991;52.140;5.428;2023-05-02T02:48:44;102177.84;;;9.82;83.83
72116;BME280;59991;52.140;5.428;2023-05-02T02:50:15;102172.06;;;9.84;83.50
72116;BME280;59991;52.140;5.428;2023-05-02T02:51:42;102177.19;;;9.85;83.07
72116;BME280;59991;52.140;5.428;2023-05-02T02:52:27;102174.91;;;9.87;83.15
72116;BME280;59991;52.140;5.428;2023-05-02T02:53:04;102177.63;;;9.87;83.33
72116;BME280;59991;52.140;5.428;2023-05-02T02:54:04;102169.47;;;9.87;83.23
72116;BME280;59991;52.140;5.428;2023-05-02T02:54:59;102183.09;;;9.87;82.76
72116;BME280;59991;52.140;5.428;2023-05-02T02:56:00;102182.28;;;9.87;82.92
72116;BME280;59991;52.140;5.428;2023-05-02T02:56:41;102181.50;;;9.86;82.93
72116;BME280;59991;52.140;5.428;2023-05-02T02:57:27;102185.00;;;9.87;82.83
72116;BME280;59991;52.140;5.428;2023-05-02T02:59:04;102182.97;;;9.84;83.02
72116;BME280;59991;52.140;5.428;2023-05-02T02:59:40;102180.94;;;9.81;82.96
72116;BME280;59991;52.140;5.428;2023-05-02T03:00:19;102187.19;;;9.81;83.35
72116;BME280;59991;52.140;5.428;2023-05-02T03:00:51;102185.94;;;9.79;82.85
72116;BME280;59991;52.140;5.428;2023-05-02T03:01:24;102179.69;;;9.78;82.87
72116;BME280;59991;52.140;5.428;2023-05-02T03:02:07;102181.63;;;9.78;83.19
72116;BME280;59991;52.140;5.428;2023-05-02T03:02:41;102178.88;;;9.78;83.17
72116;BME280;59991;52.140;5.428;2023-05-02T03:03:13;102183.22;;;9.79;83.24
72116;BME280;59991;52.140;5.428;2023-05-02T03:03:47;102185.94;;;9.79;83.19
72116;BME280;59991;52.140;5.428;2023-05-02T03:04:20;102186.72;;;9.79;83.00
72116;BME280;59991;52.140;5.428;2023-05-02T03:04:53;102180.47;;;9.79;82.94
72116;BME280;59991;52.140;5.428;2023-05-02T03:05:26;102183.22;;;9.79;83.09
72116;BME280;59991;52.140;5.428;2023-05-02T03:05:58;102184.00;;;9.79;82.87
72116;BME280;59991;52.140;5.428;2023-05-02T03:06:30;102187.53;;;9.80;82.97
72116;BME280;59991;52.140;5.428;2023-05-02T03:07:03;102192.63;;;9.81;82.52
72116;BME280;59991;52.140;5.428;2023-05-02T03:07:35;102185.22;;;9.82;82.82
72116;BME280;59991;52.140;5.428;2023-05-02T03:08:07;102189.53;;;9.83;82.31
72116;BME280;59991;52.140;5.428;2023-05-02T03:08:42;102191.13;;;9.84;82.29
72116;BME280;59991;52.140;5.428;2023-05-02T03:09:15;102195.44;;;9.85;83.15
72116;BME280;59991;52.140;5.428;2023-05-02T03:09:50;102201.69;;;9.85;82.47
72116;BME280;59991;52.140;5.428;2023-05-02T03:10:21;102192.72;;;9.85;82.44
72116;BME280;59991;52.140;5.428;2023-05-02T03:10:53;102192.25;;;9.83;82.65
72116;BME280;59991;52.140;5.428;2023-05-02T03:11:25;102196.91;;;9.82;82.49
72116;BME280;59991;52.140;5.428;2023-05-02T03:11:58;102199.66;;;9.82;82.38
72116;BME280;59991;52.140;5.428;2023-05-02T03:12:30;102195.00;;;9.83;82.43
72116;BME280;59991;52.140;5.428;2023-05-02T03:13:01;102195.34;;;9.81;82.16
72116;BME280;59991;52.140;5.428;2023-05-02T03:13:33;102191.47;;;9.82;82.24
72116;BME280;59991;52.140;5.428;2023-05-02T03:14:05;102194.19;;;9.82;82.14
72116;BME280;59991;52.140;5.428;2023-05-02T03:14:37;102200.44;;;9.83;82.38
72116;BME280;59991;52.140;5.428;2023-05-02T03:16:39;102202.03;;;9.84;82.47
72116;BME280;59991;52.140;5.428;2023-05-02T03:17:11;102204.75;;;9.84;81.97
72116;BME280;59991;52.140;5.428;2023-05-02T03:17:43;102203.16;;;9.83;82.51